createdAt,value
2018-09-02T00:02:20.512Z,5.80
2018-09-02T00:04:49.591Z,5.40
2018-09-02T00:07:18.706Z,4.77
2018-09-02T00:09:47.743Z,4.90
2018-09-02T00:12:16.810Z,5.00
2018-09-02T00:14:45.888Z,4.30
2018-09-02T00:17:14.944Z,4.60
2018-09-02T00:19:44.080Z,3.57
2018-09-02T00:22:13.111Z,4.30
2018-09-02T00:24:42.329Z,3.83
2018-09-02T00:27:11.852Z,3.80
2018-09-02T00:29:41.205Z,4.03
2018-09-02T00:32:10.269Z,3.57
2018-09-02T00:34:39.332Z,4.23
2018-09-02T00:37:09.216Z,4.23
2018-09-02T00:39:38.277Z,3.43
2018-09-02T00:42:07.313Z,3.40
2018-09-02T00:44:36.385Z,3.90
2018-09-02T00:47:05.713Z,3.63
2018-09-02T00:49:34.756Z,3.70
2018-09-02T00:52:04.045Z,3.73
2018-09-02T00:54:33.176Z,4.13
2018-09-02T00:57:02.345Z,3.63
2018-09-02T00:59:31.423Z,2.87
2018-09-02T01:02:00.459Z,3.60
2018-09-02T01:04:29.624Z,3.23
2018-09-02T01:06:59.424Z,3.83
2018-09-02T01:09:28.708Z,3.55
2018-09-02T01:11:59.716Z,3.55
2018-09-02T01:14:29.203Z,3.27
2018-09-02T01:17:00.024Z,3.07
2018-09-02T01:19:29.219Z,3.43
2018-09-02T01:21:58.397Z,3.37
2018-09-02T01:24:27.553Z,3.70
2018-09-02T01:26:56.683Z,3.57
2018-09-02T01:29:25.887Z,3.77
2018-09-02T01:31:54.975Z,3.50
2018-09-02T01:34:24.582Z,3.77
2018-09-02T01:36:53.705Z,3.90
2018-09-02T01:39:22.809Z,3.10
2018-09-02T01:41:51.939Z,3.43
2018-09-02T01:44:21.225Z,2.90
2018-09-02T01:46:51.586Z,3.20
2018-09-02T01:49:20.730Z,3.12
2018-09-02T01:51:49.884Z,3.20
2018-09-02T01:54:18.987Z,2.93
2018-09-02T01:56:49.475Z,3.50
2018-09-02T01:59:19.650Z,3.67
2018-09-02T02:01:51.184Z,3.20
2018-09-02T02:09:18.156Z,3.27
2018-09-02T02:11:47.622Z,3.63
2018-09-02T02:14:17.085Z,3.40
2018-09-02T02:16:46.312Z,3.47
2018-09-02T02:19:15.526Z,3.37
2018-09-02T02:21:44.686Z,3.42
2018-09-02T02:24:14.816Z,3.33
2018-09-02T02:26:48.133Z,4.27
2018-09-02T02:29:19.193Z,3.36
2018-09-02T02:31:48.663Z,3.87
2018-09-02T02:34:18.041Z,3.00
2018-09-02T02:36:47.401Z,3.03
2018-09-02T02:39:17.290Z,3.62
2018-09-02T02:41:49.776Z,3.40
2018-09-02T02:44:18.953Z,3.20
2018-09-02T02:46:48.083Z,3.70
2018-09-02T02:49:17.216Z,2.73
2018-09-02T02:51:46.623Z,3.20
2018-09-02T02:54:18.070Z,3.43
2018-09-02T02:56:47.373Z,3.45
2018-09-02T02:59:16.493Z,3.73
2018-09-02T03:01:46.194Z,3.57
2018-09-02T03:04:16.007Z,3.77
2018-09-02T03:06:47.939Z,3.45
2018-09-02T03:09:17.390Z,3.27
2018-09-02T03:11:46.648Z,3.67
2018-09-02T03:14:16.433Z,3.70
2018-09-02T03:16:48.275Z,3.83
2018-09-02T03:19:17.369Z,3.90
2018-09-02T03:21:46.570Z,3.98
2018-09-02T03:24:16.387Z,4.10
2018-09-02T03:26:45.591Z,4.13
2018-09-02T03:29:16.196Z,3.72
2018-09-02T03:31:46.635Z,3.83
2018-09-02T03:34:16.054Z,4.17
2018-09-02T03:36:45.635Z,4.00
2018-09-02T03:39:17.637Z,3.90
2018-09-02T03:41:47.437Z,3.83
2018-09-02T03:44:17.311Z,4.63
2018-09-02T03:46:47.514Z,4.13
2018-09-02T03:49:17.686Z,4.30
2018-09-02T03:51:47.434Z,4.03
2018-09-02T03:54:17.835Z,3.60
2018-09-02T03:56:47.885Z,3.30
2018-09-02T03:59:18.714Z,3.03
2018-09-02T04:01:48.913Z,3.67
2018-09-02T04:04:18.761Z,3.73
2018-09-02T04:06:49.269Z,3.10
2018-09-02T04:09:18.928Z,3.77
2018-09-02T04:11:48.595Z,3.65
2018-09-02T04:14:18.386Z,4.10
2018-09-02T04:16:48.234Z,3.83
2018-09-02T04:19:17.873Z,3.20
2018-09-02T04:21:47.784Z,4.13
2018-09-02T04:24:17.428Z,3.43
2018-09-02T04:26:47.206Z,3.77
2018-09-02T04:29:18.248Z,3.50
2018-09-02T04:31:47.874Z,3.70
2018-09-02T04:34:18.430Z,4.03
2018-09-02T04:36:48.306Z,3.62
2018-09-02T04:39:18.209Z,4.00
2018-09-02T04:41:48.758Z,4.03
2018-09-02T04:44:20.232Z,4.20
2018-09-02T04:46:51.022Z,3.87
2018-09-02T04:49:20.733Z,4.13
2018-09-02T04:51:50.815Z,4.08
2018-09-02T04:54:21.457Z,4.13
2018-09-02T04:56:51.762Z,4.43
2018-09-02T04:59:21.849Z,3.73
2018-09-02T05:01:51.607Z,3.97
2018-09-02T05:04:21.475Z,4.27
2018-09-02T05:06:51.571Z,3.83
2018-09-02T05:09:21.161Z,4.40
2018-09-02T05:11:52.791Z,3.90
2018-09-02T05:14:22.709Z,4.93
2018-09-02T05:16:52.282Z,3.57
2018-09-02T05:19:21.776Z,3.47
2018-09-02T05:21:51.647Z,4.00
2018-09-02T05:24:21.029Z,4.07
2018-09-02T05:26:50.835Z,4.22
2018-09-02T05:29:21.004Z,4.30
2018-09-02T05:31:50.960Z,4.50
2018-09-02T05:34:21.090Z,4.57
2018-09-02T05:36:50.620Z,4.33
2018-09-02T05:39:20.100Z,4.77
2018-09-02T05:41:49.632Z,4.57
2018-09-02T05:44:19.309Z,4.70
2018-09-02T05:46:48.845Z,4.77
2018-09-02T05:49:18.150Z,4.20
2018-09-02T05:51:48.020Z,3.73
2018-09-02T05:59:15.088Z,4.60
2018-09-02T06:01:44.208Z,4.73
2018-09-02T06:04:13.389Z,4.00
2018-09-02T06:06:42.506Z,4.42
2018-09-02T06:09:11.803Z,4.35
2018-09-02T06:11:40.961Z,4.47
2018-09-02T06:14:10.079Z,4.90
2018-09-02T06:16:39.293Z,4.67
2018-09-02T06:19:08.481Z,5.30
2018-09-02T06:21:37.545Z,4.80
2018-09-02T06:24:07.186Z,5.22
2018-09-02T06:26:36.277Z,5.03
2018-09-02T06:29:05.424Z,4.83
2018-09-02T06:31:34.577Z,4.90
2018-09-02T06:34:03.649Z,4.93
2018-09-02T06:36:32.752Z,5.03
2018-09-02T06:39:01.841Z,4.97
2018-09-02T06:41:30.988Z,5.50
2018-09-02T06:44:00.131Z,6.00
2018-09-02T06:46:29.265Z,7.65
2018-09-02T06:48:58.869Z,7.53
2018-09-02T06:51:28.034Z,6.97
2018-09-02T06:53:57.099Z,6.00
2018-09-02T06:56:26.410Z,7.10
2018-09-02T06:58:55.533Z,6.93
2018-09-02T07:01:24.775Z,7.17
2018-09-02T07:03:53.871Z,7.72
2018-09-02T07:06:22.989Z,8.20
2018-09-02T07:08:52.068Z,9.07
2018-09-02T07:11:21.283Z,10.03
2018-09-02T07:13:50.396Z,9.63
2018-09-02T07:16:19.620Z,8.95
2018-09-02T07:18:48.720Z,9.17
2018-09-02T07:21:17.976Z,8.97
2018-09-02T07:23:47.105Z,9.00
2018-09-02T07:26:16.319Z,8.47
2018-09-02T07:28:46.772Z,8.30
2018-09-02T07:31:16.082Z,8.70
2018-09-02T07:33:45.207Z,8.63
2018-09-02T07:36:14.497Z,8.13
2018-09-02T07:38:43.773Z,8.23
2018-09-02T07:41:12.888Z,8.70
2018-09-02T07:43:42.234Z,8.40
2018-09-02T07:46:11.445Z,9.33
2018-09-02T07:48:40.693Z,9.00
2018-09-02T07:51:10.124Z,9.30
2018-09-02T07:53:39.374Z,8.28
2018-09-02T07:56:08.609Z,8.08
2018-09-02T07:58:37.735Z,8.57
2018-09-02T08:01:06.873Z,7.80
2018-09-02T08:03:36.312Z,8.17
2018-09-02T08:06:05.357Z,7.77
2018-09-02T08:08:34.565Z,7.75
2018-09-02T08:11:03.769Z,7.70
2018-09-02T08:13:32.817Z,8.27
2018-09-02T08:16:02.173Z,8.07
2018-09-02T08:18:31.230Z,7.80
2018-09-02T08:21:00.314Z,7.43
2018-09-02T08:23:29.515Z,7.30
2018-09-02T08:25:58.590Z,7.20
2018-09-02T08:28:27.780Z,7.70
2018-09-02T08:30:57.311Z,7.60
2018-09-02T08:33:26.704Z,7.43
2018-09-02T08:35:55.808Z,7.20
2018-09-02T08:38:26.195Z,6.70
2018-09-02T08:40:55.538Z,7.20
2018-09-02T08:43:24.716Z,6.63
2018-09-02T08:45:53.839Z,6.10
2018-09-02T08:48:23.043Z,6.17
2018-09-02T08:50:52.307Z,6.03
2018-09-02T08:53:21.542Z,6.40
2018-09-02T08:55:50.709Z,5.37
2018-09-02T08:58:19.896Z,5.47
2018-09-02T09:00:49.127Z,5.90
2018-09-02T09:03:18.413Z,5.40
2018-09-02T09:05:47.668Z,5.33
2018-09-02T09:08:17.051Z,5.73
2018-09-02T09:10:46.130Z,5.50
2018-09-02T09:13:15.480Z,4.83
2018-09-02T09:15:44.805Z,5.27
2018-09-02T09:18:13.951Z,4.45
2018-09-02T09:20:43.462Z,5.07
2018-09-02T09:23:12.603Z,4.47
2018-09-02T09:25:41.784Z,3.80
2018-09-02T09:28:11.023Z,4.20
2018-09-02T09:30:40.206Z,4.67
2018-09-02T09:33:09.321Z,3.83
2018-09-02T09:35:38.632Z,3.47
2018-09-02T09:38:08.159Z,4.03
2018-09-02T09:40:37.388Z,3.77
2018-09-02T09:43:06.795Z,3.53
2018-09-02T09:45:36.035Z,3.33
2018-09-02T09:48:05.159Z,3.60
2018-09-02T09:50:34.459Z,3.55
2018-09-02T09:53:03.529Z,3.40
2018-09-02T09:55:32.623Z,3.63
2018-09-02T09:58:01.745Z,3.47
2018-09-02T10:00:36.317Z,4.33
2018-09-02T10:03:05.549Z,3.33
2018-09-02T10:05:34.925Z,3.42
2018-09-02T10:08:04.056Z,3.83
2018-09-02T10:10:33.401Z,4.07
2018-09-02T10:13:02.666Z,3.63
2018-09-02T10:15:31.799Z,3.40
2018-09-02T10:18:00.968Z,3.60
2018-09-02T10:20:30.927Z,4.92
2018-09-02T10:23:00.455Z,3.95
2018-09-02T10:25:29.659Z,3.97
2018-09-02T10:27:58.952Z,4.07
2018-09-02T10:30:28.287Z,4.67
2018-09-02T10:32:58.228Z,4.03
2018-09-02T10:35:27.335Z,3.43
2018-09-02T10:37:56.604Z,3.50
2018-09-02T10:40:25.803Z,3.85
2018-09-02T10:42:56.286Z,3.87
2018-09-02T10:45:25.589Z,2.97
2018-09-02T10:47:54.739Z,3.40
2018-09-02T10:50:23.965Z,3.50
2018-09-02T10:52:53.114Z,3.25
2018-09-02T10:55:22.283Z,3.20
2018-09-02T10:57:51.504Z,3.05
2018-09-02T11:00:21.565Z,3.70
2018-09-02T11:02:50.664Z,2.97
2018-09-02T11:05:19.808Z,3.00
2018-09-02T11:07:49.211Z,2.67
2018-09-02T11:10:18.410Z,4.53
2018-09-02T11:12:47.898Z,3.80
2018-09-02T11:15:17.115Z,3.37
2018-09-02T11:17:46.276Z,3.40
2018-09-02T11:20:15.519Z,3.43
2018-09-02T11:22:44.741Z,3.50
2018-09-02T11:25:14.035Z,4.10
2018-09-02T11:27:43.433Z,3.37
2018-09-02T11:30:12.829Z,3.23
2018-09-02T11:32:42.122Z,3.17
2018-09-02T11:35:11.320Z,4.20
2018-09-02T11:37:41.342Z,4.73
2018-09-02T11:40:10.550Z,3.83
2018-09-02T11:42:39.712Z,3.70
2018-09-02T11:45:09.176Z,3.67
2018-09-02T11:47:38.248Z,3.70
2018-09-02T11:50:07.484Z,3.33
2018-09-02T11:52:37.413Z,3.70
2018-09-02T11:55:08.104Z,3.77
2018-09-02T11:57:37.401Z,3.50
2018-09-02T12:00:06.849Z,4.07
2018-09-02T12:02:36.047Z,3.47
2018-09-02T12:05:05.205Z,3.03
2018-09-02T12:07:34.473Z,3.45
2018-09-02T12:10:03.715Z,3.40
2018-09-02T12:12:32.963Z,3.20
2018-09-02T12:15:02.280Z,3.07
2018-09-02T12:17:31.505Z,3.20
2018-09-02T12:20:00.827Z,3.10
2018-09-02T12:22:30.221Z,3.20
2018-09-02T12:24:59.486Z,2.97
2018-09-02T12:27:28.621Z,2.80
2018-09-02T12:29:58.009Z,3.20
2018-09-02T12:32:27.233Z,3.70
2018-09-02T12:34:56.620Z,2.80
2018-09-02T12:37:25.825Z,3.08
2018-09-02T12:39:55.215Z,2.80
2018-09-02T12:42:24.616Z,2.70
2018-09-02T12:44:53.794Z,2.90
2018-09-02T12:47:23.006Z,2.87
2018-09-02T12:49:52.300Z,3.50
2018-09-02T12:52:21.868Z,2.60
2018-09-02T12:54:51.070Z,2.53
2018-09-02T12:57:20.920Z,2.90
2018-09-02T12:59:50.129Z,3.17
2018-09-02T13:02:19.171Z,2.50
2018-09-02T13:04:48.537Z,2.70
2018-09-02T13:07:17.756Z,2.92
2018-09-02T13:09:46.988Z,3.00
2018-09-02T13:12:16.152Z,3.50
2018-09-02T13:14:45.580Z,2.83
2018-09-02T13:17:14.746Z,3.40
2018-09-02T13:19:44.003Z,2.67
2018-09-02T13:22:13.750Z,2.90
2018-09-02T13:24:43.094Z,3.08
2018-09-02T13:27:12.177Z,2.90
2018-09-02T13:29:42.358Z,2.70
2018-09-02T13:32:11.462Z,3.13
2018-09-02T13:34:40.762Z,3.40
2018-09-02T13:37:09.976Z,2.83
2018-09-02T13:39:39.125Z,3.40
2018-09-02T13:42:08.278Z,3.07
2018-09-02T13:44:37.318Z,3.07
2018-09-02T13:47:06.754Z,3.33
2018-09-02T13:49:36.162Z,3.03
2018-09-02T13:52:05.284Z,3.70
2018-09-02T13:54:34.540Z,3.40
2018-09-02T13:57:03.744Z,2.93
2018-09-02T13:59:32.877Z,3.05
2018-09-02T14:02:01.932Z,2.70
2018-09-02T14:04:31.021Z,3.10
2018-09-02T14:07:00.094Z,2.98
2018-09-02T14:09:29.254Z,2.80
2018-09-02T14:11:58.340Z,2.83
2018-09-02T14:14:27.488Z,3.17
2018-09-02T14:16:56.621Z,3.10
2018-09-02T14:19:25.732Z,2.90
2018-09-02T14:21:55.048Z,3.12
2018-09-02T14:24:24.144Z,3.20
2018-09-02T14:26:53.445Z,2.47
2018-09-02T14:29:22.710Z,2.80
2018-09-02T14:31:51.855Z,2.83
2018-09-02T14:34:21.317Z,2.70
2018-09-02T14:36:50.437Z,2.60
2018-09-02T14:39:19.728Z,2.98
2018-09-02T14:41:48.844Z,2.98
2018-09-02T14:44:17.937Z,3.00
2018-09-02T14:46:47.077Z,3.03
2018-09-02T14:49:16.296Z,2.93
2018-09-02T14:51:46.639Z,3.13
2018-09-02T14:54:15.760Z,3.07
2018-09-02T14:56:45.031Z,2.87
2018-09-02T14:59:14.152Z,3.33
2018-09-02T15:01:43.333Z,2.60
2018-09-02T15:04:12.528Z,3.03
2018-09-02T15:06:41.716Z,2.77
2018-09-02T15:09:11.313Z,2.40
2018-09-02T15:11:41.150Z,2.87
2018-09-02T15:14:10.287Z,2.90
2018-09-02T15:16:39.634Z,2.90
2018-09-02T15:19:09.037Z,2.80
2018-09-02T15:21:38.289Z,2.40
2018-09-02T15:24:07.562Z,2.40
2018-09-02T15:26:36.693Z,2.80
2018-09-02T15:29:05.872Z,2.30
2018-09-02T15:31:35.097Z,2.43
2018-09-02T15:34:04.187Z,2.50
2018-09-02T15:36:33.375Z,2.90
2018-09-02T15:39:02.464Z,2.70
2018-09-02T15:41:31.602Z,2.70
2018-09-02T15:44:01.396Z,2.87
2018-09-02T15:46:30.557Z,2.30
2018-09-02T15:48:59.798Z,2.70
2018-09-02T15:51:28.987Z,2.47
2018-09-02T15:53:58.141Z,2.67
2018-09-02T15:59:03.870Z,2.37
2018-09-02T16:01:33.248Z,2.15
2018-09-02T16:04:02.462Z,2.50
2018-09-02T16:06:31.598Z,2.43
2018-09-02T16:09:00.682Z,2.50
2018-09-02T16:11:29.857Z,2.77
2018-09-02T16:13:58.974Z,2.43
2018-09-02T16:16:28.198Z,2.00
2018-09-02T16:18:57.644Z,2.30
2018-09-02T16:21:29.299Z,2.33
2018-09-02T16:23:59.810Z,2.47
2018-09-02T16:26:28.951Z,2.03
2018-09-02T16:28:58.355Z,2.42
2018-09-02T16:31:27.602Z,2.22
2018-09-02T16:33:56.974Z,2.10
2018-09-02T16:36:26.304Z,2.27
2018-09-02T16:38:55.487Z,2.33
2018-09-02T16:41:24.697Z,2.23
2018-09-02T16:43:53.884Z,2.50
2018-09-02T16:46:23.116Z,2.08
2018-09-02T16:48:52.285Z,2.12
2018-09-02T16:51:21.424Z,2.30
2018-09-02T16:53:50.553Z,2.30
2018-09-02T16:56:19.609Z,2.30
2018-09-02T16:58:48.768Z,2.20
2018-09-02T17:01:18.592Z,2.30
2018-09-02T17:03:52.116Z,1.80
2018-09-02T17:06:21.248Z,2.22
2018-09-02T17:08:51.300Z,1.87
2018-09-02T17:11:20.478Z,2.20
2018-09-02T17:13:49.913Z,2.20
2018-09-02T17:16:19.278Z,2.13
2018-09-02T17:18:50.838Z,2.40
2018-09-02T17:21:20.060Z,2.27
2018-09-02T17:23:49.284Z,2.17
2018-09-02T17:26:18.541Z,2.43
2018-09-02T17:28:47.708Z,2.70
2018-09-02T17:31:16.844Z,2.87
2018-09-02T17:33:45.936Z,2.20
2018-09-02T17:36:15.145Z,2.20
2018-09-02T17:38:44.363Z,2.50
2018-09-02T17:41:13.814Z,2.43
2018-09-02T17:43:43.016Z,2.47
2018-09-02T17:46:12.246Z,2.10
2018-09-02T17:48:41.439Z,1.80
2018-09-02T17:51:10.769Z,2.02
2018-09-02T17:53:39.899Z,2.55
2018-09-02T17:56:09.289Z,2.00
2018-09-02T17:58:38.473Z,1.90
2018-09-02T18:01:07.580Z,2.23
2018-09-02T18:03:36.726Z,2.03
2018-09-02T18:06:06.010Z,2.10
2018-09-02T18:08:35.273Z,2.27
2018-09-02T18:11:06.418Z,2.20
2018-09-02T18:13:35.836Z,2.00
2018-09-02T18:16:05.162Z,2.20
2018-09-02T18:18:34.410Z,1.90
2018-09-02T18:21:03.800Z,2.30
2018-09-02T18:23:33.113Z,2.22
2018-09-02T18:26:02.933Z,2.02
2018-09-02T18:28:36.220Z,2.10
2018-09-02T18:31:07.241Z,2.17
2018-09-02T18:33:36.657Z,2.03
2018-09-02T18:36:06.122Z,2.00
2018-09-02T18:38:35.416Z,2.30
2018-09-02T18:41:05.203Z,1.90
2018-09-02T18:43:36.388Z,2.20
2018-09-02T18:46:05.845Z,2.08
2018-09-02T18:48:35.051Z,2.57
2018-09-02T18:51:05.397Z,1.93
2018-09-02T18:53:34.704Z,2.27
2018-09-02T18:56:03.948Z,2.37
2018-09-02T18:58:34.418Z,2.37
2018-09-02T19:01:03.542Z,2.02
2018-09-02T19:03:32.886Z,2.00
2018-09-02T19:06:02.063Z,2.20
2018-09-02T19:08:31.216Z,1.93
2018-09-02T19:11:01.351Z,2.60
2018-09-02T19:13:31.984Z,2.20
2018-09-02T19:16:01.247Z,2.20
2018-09-02T19:18:30.419Z,1.90
2018-09-02T19:20:59.934Z,2.10
2018-09-02T19:23:29.563Z,2.30
2018-09-02T19:25:59.084Z,1.93
2018-09-02T19:28:29.491Z,2.12
2018-09-02T19:30:58.964Z,2.10
2018-09-02T19:33:28.085Z,2.25
2018-09-02T19:35:59.103Z,1.70
2018-09-02T19:38:29.458Z,2.30
2018-09-02T19:40:59.603Z,2.00
2018-09-02T19:43:30.687Z,1.93
2018-09-02T19:46:05.121Z,2.20
2018-09-02T19:48:34.627Z,2.20
2018-09-02T19:51:05.092Z,1.95
2018-09-02T19:53:34.695Z,2.02
2018-09-02T19:56:05.894Z,2.00
2018-09-02T19:58:37.976Z,2.00
2018-09-02T20:01:07.669Z,1.82
2018-09-02T20:03:39.151Z,1.72
2018-09-02T20:06:09.352Z,2.10
2018-09-02T20:08:39.492Z,2.00
2018-09-02T20:11:11.007Z,2.13
2018-09-02T20:13:41.849Z,1.87
2018-09-02T20:16:12.014Z,2.23
2018-09-02T20:18:45.258Z,2.07
2018-09-02T20:21:15.699Z,1.97
2018-09-02T20:23:45.187Z,1.77
2018-09-02T20:26:17.935Z,2.10
2018-09-02T20:28:47.807Z,1.50
2018-09-02T20:31:19.656Z,2.00
2018-09-02T20:33:52.578Z,1.90
2018-09-02T20:36:23.364Z,2.13
2018-09-02T20:38:53.674Z,1.70
2018-09-02T20:41:24.767Z,1.67
2018-09-02T20:43:56.525Z,1.57
2018-09-02T20:46:26.591Z,1.60
2018-09-02T20:49:02.192Z,1.90
2018-09-02T20:51:32.479Z,1.90
2018-09-02T20:54:04.336Z,1.70
2018-09-02T20:56:34.107Z,2.17
2018-09-02T20:59:04.612Z,1.67
2018-09-02T21:01:34.911Z,1.92
2018-09-02T21:04:05.635Z,1.55
2018-09-02T21:06:35.347Z,1.82
2018-09-02T21:09:08.693Z,1.70
2018-09-02T21:11:41.495Z,1.70
2018-09-02T21:14:13.986Z,2.00
2018-09-02T21:16:46.454Z,2.10
2018-09-02T21:19:18.910Z,1.90
2018-09-02T21:21:48.811Z,1.97
2018-09-02T21:24:20.601Z,2.10
2018-09-02T21:26:49.901Z,2.00
2018-09-02T21:29:19.905Z,2.17
2018-09-02T21:31:50.679Z,2.63
2018-09-02T21:34:20.384Z,2.13
2018-09-02T21:36:50.868Z,2.30
2018-09-02T21:39:20.685Z,2.37
2018-09-02T21:41:52.640Z,2.40
2018-09-02T21:44:22.687Z,1.98
2018-09-02T21:46:52.538Z,2.30
2018-09-02T21:49:21.880Z,2.20
2018-09-02T21:51:51.665Z,1.97
2018-09-02T21:54:21.220Z,2.23
2018-09-02T21:56:52.748Z,2.30
2018-09-02T21:59:22.122Z,2.30
2018-09-02T22:01:51.552Z,2.27
2018-09-02T22:04:21.104Z,2.23
2018-09-02T22:06:51.377Z,2.30
2018-09-02T22:09:21.018Z,2.30
2018-09-02T22:11:51.363Z,2.43
2018-09-02T22:14:26.152Z,2.20
2018-09-02T22:16:57.982Z,2.57
2018-09-02T22:19:28.080Z,2.60
2018-09-02T22:21:58.097Z,1.93
2018-09-02T22:24:28.234Z,2.63
2018-09-02T22:26:58.712Z,2.50
2018-09-02T22:29:28.078Z,2.40
2018-09-02T22:31:58.051Z,3.27
2018-09-02T22:34:29.590Z,2.40
2018-09-02T22:36:59.108Z,2.40
2018-09-02T22:39:29.041Z,2.30
2018-09-02T22:41:59.416Z,2.10
2018-09-02T22:44:29.519Z,2.63
2018-09-02T22:47:04.189Z,2.23
2018-09-02T22:49:35.457Z,2.70
2018-09-02T22:52:05.286Z,2.47
2018-09-02T22:54:36.938Z,2.90
2018-09-02T22:57:07.238Z,2.27
2018-09-02T22:59:39.812Z,2.30
2018-09-02T23:02:12.448Z,2.20
2018-09-02T23:04:42.797Z,2.40
2018-09-02T23:07:12.126Z,2.55
2018-09-02T23:09:41.874Z,2.80
2018-09-02T23:12:11.811Z,2.70
2018-09-02T23:14:42.375Z,2.90
2018-09-02T23:17:11.896Z,2.63
2018-09-02T23:19:42.476Z,2.67
2018-09-02T23:22:12.518Z,2.60
2018-09-02T23:24:44.764Z,2.90
2018-09-02T23:27:19.541Z,2.10
2018-09-02T23:29:49.310Z,2.93
2018-09-02T23:32:18.792Z,2.80
2018-09-02T23:34:52.057Z,2.22
2018-09-02T23:37:22.076Z,2.93
2018-09-02T23:39:53.993Z,2.50
2018-09-02T23:42:26.793Z,2.40
2018-09-02T23:44:55.920Z,2.53
2018-09-02T23:47:25.648Z,2.20
2018-09-02T23:49:58.007Z,2.13
2018-09-02T23:52:27.853Z,2.43
2018-09-02T23:54:57.295Z,2.80
2018-09-02T23:57:26.394Z,2.70
2018-09-02T23:59:57.067Z,2.47
